Tallahassee, Florida
Current Conditions -  °F | °C
As of 4:53 AM on Monday 22 Dec 2014 (Local Time) from KTLH Reporting Station
Haze Haze  
Wind Chill: 14°   Ceiling: 200
Heat Index: 14°   Visibility: 3mi
Dew Point: 12°   Wind: 3mph
Humidity: 89%   Direction: 40°NE
Pressure: 29.96"   Gusts: NA
Location:  30.44°N, 84.28°W
Report Text: KTLH 220953Z AUTO 04003KT 3SM BR OVC002 14/12 A2996 RMK AO2 SLP143 T01390122 $
Loading
Personal Weather Stations






























Interactive Weather Map New forecast layout! Learn more

10-Day Weather Forecast

Advertisements
Track Severe Weather on mobile